Time;durP1;ratioP1;P1;durP2;ratioP2;P2;SDS_P1;SDS_P2;PMS_P1;PMS_P2;Temp;Humidity;BMP_temperature;BMP_pressure;BME280_temperature;BME280_humidity;BME280_pressure;Samples;Min_cycle;Max_cycle;Signal;HPM_P1;HPM_P2
2023/09/28 00:00:37;;;;;;;6.15;3.83;;;;;;;;;;5047987;28;20409;-58
2023/09/28 00:03:04;;;;;;;6.53;3.80;;;;;;;;;;5047780;28;20389;-58
2023/09/28 00:05:29;;;;;;;5.80;3.90;;;;;;;;;;5044596;28;20401;-58
2023/09/28 00:07:55;;;;;;;6.27;3.97;;;;;;;;;;5047746;28;20496;-58
2023/09/28 00:10:20;;;;;;;7.07;3.83;;;;;;;;;;5048233;28;20485;-58
2023/09/28 00:12:46;;;;;;;6.33;3.97;;;;;;;;;;5047204;28;20421;-58
2023/09/28 00:15:12;;;;;;;7.63;4.07;;;;;;;;;;5046256;28;20460;-58
2023/09/28 00:17:38;;;;;;;7.37;3.70;;;;;;;;;;5047924;28;20402;-58
2023/09/28 00:20:06;;;;;;;5.35;3.95;;;;;;;;;;5047783;28;20405;-58
2023/09/28 00:22:32;;;;;;;6.40;3.33;;;;;;;;;;5045274;28;20409;-58
2023/09/28 00:24:58;;;;;;;5.60;3.47;;;;;;;;;;5048502;28;20409;-58
2023/09/28 00:27:24;;;;;;;6.78;3.30;;;;;;;;;;5047506;28;20455;-58
2023/09/28 00:29:50;;;;;;;6.25;3.55;;;;;;;;;;5044214;28;20425;-58
2023/09/28 00:32:15;;;;;;;5.90;3.38;;;;;;;;;;5046612;28;20818;-58
2023/09/28 00:34:41;;;;;;;5.23;3.20;;;;;;;;;;5048009;28;20409;-58
2023/09/28 00:37:07;;;;;;;4.67;3.10;;;;;;;;;;5045911;28;20904;-58
2023/09/28 00:39:32;;;;;;;5.80;3.10;;;;;;;;;;5046429;28;20401;-58
2023/09/28 00:41:58;;;;;;;5.10;2.90;;;;;;;;;;5046641;28;20464;-58
2023/09/28 00:44:23;;;;;;;6.33;2.93;;;;;;;;;;5047027;28;20390;-58
2023/09/28 00:46:49;;;;;;;4.88;2.75;;;;;;;;;;5045105;28;20417;-58
2023/09/28 00:49:16;;;;;;;4.87;2.83;;;;;;;;;;5047541;28;20784;-58
2023/09/28 00:51:42;;;;;;;5.10;2.70;;;;;;;;;;5045647;28;20410;-58
2023/09/28 00:54:11;;;;;;;5.55;2.90;;;;;;;;;;5045578;28;20489;-58
2023/09/28 00:56:36;;;;;;;5.25;2.88;;;;;;;;;;5046480;28;20402;-58
2023/09/28 00:59:01;;;;;;;6.23;2.87;;;;;;;;;;5046397;28;20417;-59
2023/09/28 01:01:27;;;;;;;5.90;2.90;;;;;;;;;;5047241;28;20481;-58
2023/09/28 01:03:54;;;;;;;5.83;2.90;;;;;;;;;;5044576;28;20397;-58
2023/09/28 01:06:20;;;;;;;4.78;2.70;;;;;;;;;;5046975;28;20397;-58
2023/09/28 01:08:45;;;;;;;4.60;2.60;;;;;;;;;;5047826;28;20416;-58
2023/09/28 01:11:10;;;;;;;6.17;2.87;;;;;;;;;;5044373;28;20443;-58
2023/09/28 01:13:37;;;;;;;5.17;2.90;;;;;;;;;;5046756;28;20402;-58
2023/09/28 01:16:04;;;;;;;5.22;2.85;;;;;;;;;;5046832;28;20448;-58
2023/09/28 01:18:29;;;;;;;6.20;2.67;;;;;;;;;;5045633;28;20417;-58
2023/09/28 01:20:55;;;;;;;4.63;3.00;;;;;;;;;;5045784;28;20967;-58
2023/09/28 01:23:20;;;;;;;5.22;2.85;;;;;;;;;;5046869;28;20929;-58
2023/09/28 01:25:47;;;;;;;4.63;2.70;;;;;;;;;;5046915;28;20500;-58
2023/09/28 01:28:12;;;;;;;5.13;2.80;;;;;;;;;;5044158;28;20550;-58
2023/09/28 01:30:38;;;;;;;6.53;2.70;;;;;;;;;;5047164;28;20425;-58
2023/09/28 01:33:04;;;;;;;5.80;2.57;;;;;;;;;;5045832;28;20417;-58
2023/09/28 01:35:29;;;;;;;6.23;2.80;;;;;;;;;;5045601;28;20401;-58
2023/09/28 01:38:02;;;;;;;4.93;2.58;;;;;;;;;;5046239;28;20398;-58
2023/09/28 01:40:27;;;;;;;4.95;2.88;;;;;;;;;;5046300;28;20808;-58
2023/09/28 01:42:53;;;;;;;5.10;2.63;;;;;;;;;;5046080;28;20572;-58
2023/09/28 01:45:18;;;;;;;4.15;2.63;;;;;;;;;;5044236;28;20416;-58
2023/09/28 01:47:44;;;;;;;5.43;2.63;;;;;;;;;;5046480;28;20424;-58
2023/09/28 01:50:09;;;;;;;4.80;2.80;;;;;;;;;;5046237;28;20409;-58
2023/09/28 01:52:34;;;;;;;6.07;2.77;;;;;;;;;;5045108;28;20488;-58
2023/09/28 01:55:00;;;;;;;6.10;3.20;;;;;;;;;;5045760;28;20448;-58
2023/09/28 01:57:25;;;;;;;4.47;2.73;;;;;;;;;;5046209;28;20420;-58
2023/09/28 01:59:50;;;;;;;5.23;2.80;;;;;;;;;;5045788;28;20512;-58
2023/09/28 02:02:16;;;;;;;4.90;2.72;;;;;;;;;;5044366;28;20500;-58
2023/09/28 02:04:41;;;;;;;6.38;3.00;;;;;;;;;;5046633;28;20462;-58
2023/09/28 02:07:07;;;;;;;4.80;3.10;;;;;;;;;;5045703;28;20401;-58
2023/09/28 02:09:32;;;;;;;6.33;3.13;;;;;;;;;;5044404;28;20409;-58
2023/09/28 02:11:57;;;;;;;5.43;3.10;;;;;;;;;;5046905;28;20990;-58
2023/09/28 02:14:23;;;;;;;6.55;2.80;;;;;;;;;;5045686;28;20401;-58
2023/09/28 02:16:50;;;;;;;4.73;2.90;;;;;;;;;;5048888;28;20459;-58
2023/09/28 02:19:15;;;;;;;6.03;2.87;;;;;;;;;;5049427;28;20401;-58
2023/09/28 02:21:41;;;;;;;7.15;2.97;;;;;;;;;;5049985;28;20807;-58
2023/09/28 02:24:07;;;;;;;4.77;2.70;;;;;;;;;;5049296;28;20900;-58
2023/09/28 02:26:33;;;;;;;4.72;2.72;;;;;;;;;;5048783;28;20409;-58
2023/09/28 02:28:59;;;;;;;4.80;2.88;;;;;;;;;;5049439;28;20436;-58
2023/09/28 02:31:25;;;;;;;5.90;2.87;;;;;;;;;;5049698;28;20756;-58
2023/09/28 02:33:51;;;;;;;7.13;3.10;;;;;;;;;;5050467;28;20910;-58
2023/09/28 02:36:16;;;;;;;6.38;2.70;;;;;;;;;;5044847;28;21105;-58
2023/09/28 02:38:42;;;;;;;4.57;2.80;;;;;;;;;;5028298;28;20980;-58
2023/09/28 02:41:15;;;;;;;5.53;3.05;;;;;;;;;;5026037;28;20434;-58
2023/09/28 02:43:40;;;;;;;5.60;3.13;;;;;;;;;;5027045;28;20886;-58
2023/09/28 02:46:06;;;;;;;6.90;3.20;;;;;;;;;;5030398;28;20414;-58
2023/09/28 02:48:31;;;;;;;4.87;2.97;;;;;;;;;;5035932;28;20444;-58
2023/09/28 02:50:57;;;;;;;5.10;2.90;;;;;;;;;;5020516;28;20413;-58
2023/09/28 02:53:22;;;;;;;7.33;3.00;;;;;;;;;;5022453;28;20443;-58
2023/09/28 02:55:47;;;;;;;5.53;3.00;;;;;;;;;;5025705;28;20843;-58
2023/09/28 02:58:13;;;;;;;8.27;3.30;;;;;;;;;;5025549;28;20425;-58
2023/09/28 03:00:38;;;;;;;6.67;3.10;;;;;;;;;;5028488;28;20426;-58
2023/09/28 03:03:04;;;;;;;6.37;3.30;;;;;;;;;;5027943;28;20410;-58
2023/09/28 03:05:30;;;;;;;7.05;3.45;;;;;;;;;;5025981;28;20748;-58
2023/09/28 03:07:55;;;;;;;4.13;2.90;;;;;;;;;;5026694;28;20406;-58
2023/09/28 03:10:21;;;;;;;5.23;2.83;;;;;;;;;;5027856;28;20438;-58
2023/09/28 03:12:46;;;;;;;5.75;3.08;;;;;;;;;;5023004;28;20399;-58
2023/09/28 03:15:13;;;;;;;6.40;3.00;;;;;;;;;;5018786;28;20516;-58
2023/09/28 03:17:39;;;;;;;7.60;3.13;;;;;;;;;;5019379;28;20406;-58
2023/09/28 03:20:10;;;;;;;4.90;2.80;;;;;;;;;;5024493;28;20410;-58
2023/09/28 03:22:35;;;;;;;7.15;2.85;;;;;;;;;;5027490;28;20401;-58
2023/09/28 03:25:01;;;;;;;5.53;3.03;;;;;;;;;;5024975;28;20415;-60
2023/09/28 03:27:26;;;;;;;5.20;2.73;;;;;;;;;;5027925;28;20829;-58
2023/09/28 03:29:52;;;;;;;6.20;3.00;;;;;;;;;;5027446;28;20970;-58
2023/09/28 03:32:17;;;;;;;5.45;3.00;;;;;;;;;;5025911;28;20496;-58
2023/09/28 03:34:42;;;;;;;5.20;3.05;;;;;;;;;;5025948;28;20487;-58
2023/09/28 03:37:08;;;;;;;5.83;2.97;;;;;;;;;;5020225;28;20405;-58
2023/09/28 03:39:33;;;;;;;5.87;2.90;;;;;;;;;;5018723;28;20409;-58
2023/09/28 03:41:58;;;;;;;5.33;3.00;;;;;;;;;;5022628;28;20407;-58
2023/09/28 03:44:24;;;;;;;4.57;3.10;;;;;;;;;;5028346;28;20872;-58
2023/09/28 03:46:49;;;;;;;5.57;3.00;;;;;;;;;;5025843;28;20414;-58
2023/09/28 03:49:14;;;;;;;5.40;3.37;;;;;;;;;;5026631;28;20415;-58
2023/09/28 03:51:39;;;;;;;5.90;2.90;;;;;;;;;;5029282;28;20410;-58
2023/09/28 03:54:05;;;;;;;5.13;3.03;;;;;;;;;;5025895;28;20441;-58
2023/09/28 03:56:31;;;;;;;6.93;3.22;;;;;;;;;;5025920;28;20466;-58
2023/09/28 03:58:56;;;;;;;5.73;3.20;;;;;;;;;;5021441;28;20403;-58
2023/09/28 04:01:21;;;;;;;5.67;3.10;;;;;;;;;;5017423;28;20433;-58
2023/09/28 04:03:46;;;;;;;5.03;3.10;;;;;;;;;;5017758;28;20435;-58
2023/09/28 04:06:13;;;;;;;6.93;3.33;;;;;;;;;;5024839;28;20407;-58
2023/09/28 04:08:39;;;;;;;5.80;3.00;;;;;;;;;;5027707;28;20427;-58
2023/09/28 04:11:04;;;;;;;5.78;3.15;;;;;;;;;;5026108;28;20428;-59
2023/09/28 04:13:29;;;;;;;6.77;3.70;;;;;;;;;;5026408;28;20415;-58
2023/09/28 04:15:55;;;;;;;7.27;3.47;;;;;;;;;;5028117;28;20413;-58
2023/09/28 04:18:20;;;;;;;5.88;3.08;;;;;;;;;;5026802;28;20427;-58
2023/09/28 04:20:46;;;;;;;5.20;3.20;;;;;;;;;;5020769;28;20405;-58
2023/09/28 04:23:12;;;;;;;5.60;3.03;;;;;;;;;;5019866;28;20762;-59
2023/09/28 04:25:37;;;;;;;6.28;3.13;;;;;;;;;;5018537;28;20440;-58
2023/09/28 04:28:03;;;;;;;5.30;3.20;;;;;;;;;;5021075;28;20413;-58
2023/09/28 04:30:28;;;;;;;5.90;3.57;;;;;;;;;;5024791;28;20403;-58
2023/09/28 04:32:54;;;;;;;5.75;3.35;;;;;;;;;;5027307;28;20415;-58
2023/09/28 04:35:20;;;;;;;4.70;3.30;;;;;;;;;;5024526;28;20405;-58
2023/09/28 04:37:47;;;;;;;9.75;3.60;;;;;;;;;;5025127;28;21274;-58
2023/09/28 04:40:13;;;;;;;6.05;3.63;;;;;;;;;;5027555;28;20415;-58
2023/09/28 04:42:39;;;;;;;6.18;3.55;;;;;;;;;;5028592;28;20440;-58
2023/09/28 04:45:05;;;;;;;5.80;3.30;;;;;;;;;;5018654;28;20449;-58
2023/09/28 04:47:30;;;;;;;6.70;3.40;;;;;;;;;;5018729;28;20406;-58
2023/09/28 04:49:55;;;;;;;7.43;3.33;;;;;;;;;;5021762;28;20930;-58
2023/09/28 04:52:22;;;;;;;5.40;3.30;;;;;;;;;;5025748;28;20444;-58
2023/09/28 04:54:48;;;;;;;7.32;3.42;;;;;;;;;;5025353;28;20395;-58
2023/09/28 04:57:13;;;;;;;6.85;3.63;;;;;;;;;;5025701;28;20967;-58
2023/09/28 04:59:38;;;;;;;8.63;5.93;;;;;;;;;;5024596;28;20489;-58
2023/09/28 05:02:04;;;;;;;9.60;5.90;;;;;;;;;;5025035;28;20419;-59
2023/09/28 05:04:30;;;;;;;7.13;4.32;;;;;;;;;;5025092;28;20390;-58
2023/09/28 05:06:56;;;;;;;6.20;3.77;;;;;;;;;;5019040;28;20413;-58
2023/09/28 05:09:21;;;;;;;7.55;3.90;;;;;;;;;;5016828;28;20402;-58
2023/09/28 05:11:46;;;;;;;6.77;3.93;;;;;;;;;;5016638;28;20470;-58
2023/09/28 05:14:12;;;;;;;9.60;3.97;;;;;;;;;;5026358;28;20812;-58
2023/09/28 05:16:37;;;;;;;6.77;4.20;;;;;;;;;;5025068;28;20414;-58
2023/09/28 05:19:02;;;;;;;6.27;3.70;;;;;;;;;;5023647;28;20407;-59
2023/09/28 05:21:27;;;;;;;6.70;3.63;;;;;;;;;;5026623;28;20496;-57
2023/09/28 05:23:53;;;;;;;8.67;3.70;;;;;;;;;;5025172;28;20650;-57
2023/09/28 05:26:18;;;;;;;6.90;3.50;;;;;;;;;;5023459;28;21023;-57
2023/09/28 05:28:44;;;;;;;7.00;3.60;;;;;;;;;;5017350;28;20453;-57
2023/09/28 05:31:09;;;;;;;6.67;3.27;;;;;;;;;;5013085;28;20936;-56
2023/09/28 05:33:34;;;;;;;8.47;3.93;;;;;;;;;;5018369;28;20399;-57
2023/09/28 05:36:00;;;;;;;8.10;4.10;;;;;;;;;;5021947;28;20449;-57
2023/09/28 05:38:25;;;;;;;7.77;4.20;;;;;;;;;;5022523;28;20424;-57
2023/09/28 05:40:50;;;;;;;6.33;3.87;;;;;;;;;;5024984;28;20403;-57
2023/09/28 05:43:15;;;;;;;7.47;4.27;;;;;;;;;;5025810;28;20420;-57
2023/09/28 05:45:41;;;;;;;7.18;4.22;;;;;;;;;;5027513;28;20912;-57
2023/09/28 05:48:06;;;;;;;6.97;4.03;;;;;;;;;;5024687;28;20906;-56
2023/09/28 05:50:31;;;;;;;7.40;4.13;;;;;;;;;;5026488;28;20401;-57
2023/09/28 05:52:56;;;;;;;6.43;4.10;;;;;;;;;;5020198;28;20446;-57
2023/09/28 05:55:24;;;;;;;7.77;4.17;;;;;;;;;;5020638;28;20826;-57
2023/09/28 05:57:50;;;;;;;8.00;4.20;;;;;;;;;;5025694;28;20813;-57
2023/09/28 06:00:15;;;;;;;8.20;4.17;;;;;;;;;;5027177;28;20429;-57
2023/09/28 06:02:41;;;;;;;9.55;4.30;;;;;;;;;;5027717;28;20591;-57
2023/09/28 06:05:06;;;;;;;8.17;4.53;;;;;;;;;;5027249;28;20417;-57
2023/09/28 06:07:32;;;;;;;10.68;4.72;;;;;;;;;;5030088;28;20458;-57
2023/09/28 06:09:57;;;;;;;10.52;4.63;;;;;;;;;;5027284;28;20623;-57
2023/09/28 06:12:22;;;;;;;7.27;3.70;;;;;;;;;;5026539;28;20786;-57
2023/09/28 06:14:48;;;;;;;12.73;5.30;;;;;;;;;;5025884;28;20447;-57
2023/09/28 06:17:13;;;;;;;12.40;5.38;;;;;;;;;;5047285;28;21450;-57
2023/09/28 06:19:39;;;;;;;10.50;4.78;;;;;;;;;;5050083;28;20734;-57
2023/09/28 06:22:09;;;;;;;9.88;4.90;;;;;;;;;;5047039;28;20521;-57
2023/09/28 06:24:34;;;;;;;13.27;5.07;;;;;;;;;;5048882;28;20397;-57
2023/09/28 06:26:59;;;;;;;11.20;4.72;;;;;;;;;;5047003;28;21092;-57
2023/09/28 06:29:24;;;;;;;12.48;5.20;;;;;;;;;;5040562;28;20445;-58
2023/09/28 06:31:50;;;;;;;11.45;5.20;;;;;;;;;;5045204;28;21400;-57
2023/09/28 06:34:15;;;;;;;12.47;5.40;;;;;;;;;;5047142;28;20754;-57
2023/09/28 06:36:41;;;;;;;11.97;5.70;;;;;;;;;;5046156;28;20421;-58
2023/09/28 06:39:06;;;;;;;13.10;5.40;;;;;;;;;;5046150;28;21014;-58
2023/09/28 06:41:32;;;;;;;11.02;4.82;;;;;;;;;;5039115;28;20810;-57
2023/09/28 06:43:57;;;;;;;11.15;4.72;;;;;;;;;;5045011;28;20552;-57
2023/09/28 06:46:23;;;;;;;11.82;4.63;;;;;;;;;;5046751;28;20405;-57
2023/09/28 06:48:49;;;;;;;12.20;4.80;;;;;;;;;;5046747;28;20405;-57
2023/09/28 06:51:15;;;;;;;12.75;4.25;;;;;;;;;;5047176;28;20405;-57
2023/09/28 06:53:41;;;;;;;10.50;4.37;;;;;;;;;;5048790;28;20436;-57
2023/09/28 06:56:06;;;;;;;10.53;4.23;;;;;;;;;;5044267;28;20441;-58
2023/09/28 06:58:31;;;;;;;14.00;4.30;;;;;;;;;;5043143;28;20768;-57
2023/09/28 07:00:58;;;;;;;14.03;4.23;;;;;;;;;;5046690;28;20888;-57
2023/09/28 07:03:23;;;;;;;13.43;4.57;;;;;;;;;;5041633;28;20409;-57
2023/09/28 07:05:48;;;;;;;10.37;4.40;;;;;;;;;;5045860;28;20405;-57
2023/09/28 07:08:14;;;;;;;9.20;4.07;;;;;;;;;;5047300;28;20409;-57
2023/09/28 07:10:39;;;;;;;12.47;3.70;;;;;;;;;;5047546;28;20435;-57
2023/09/28 07:13:05;;;;;;;12.73;4.17;;;;;;;;;;5045486;28;20437;-58
2023/09/28 07:15:31;;;;;;;13.47;4.53;;;;;;;;;;5047935;28;20406;-57
2023/09/28 07:17:57;;;;;;;13.60;4.30;;;;;;;;;;5042618;28;20402;-57
2023/09/28 07:22:57;;;;;;;12.65;3.75;;;;;;;;;;5067261;22;20445;-57
2023/09/28 07:25:23;;;;;;;13.60;3.97;;;;;;;;;;5000416;28;20482;-57
2023/09/28 07:27:49;;;;;;;13.73;4.20;;;;;;;;;;5000187;28;20488;-58
2023/09/28 07:30:15;;;;;;;15.73;3.67;;;;;;;;;;5005366;28;20416;-57
2023/09/28 07:32:40;;;;;;;15.00;4.25;;;;;;;;;;5003152;28;20474;-57
2023/09/28 07:35:09;;;;;;;14.77;3.80;;;;;;;;;;5007201;28;20948;-57
2023/09/28 07:37:34;;;;;;;13.38;3.97;;;;;;;;;;5006612;28;20403;-57
2023/09/28 07:40:01;;;;;;;15.43;3.67;;;;;;;;;;5011727;28;21196;-57
2023/09/28 07:42:27;;;;;;;14.73;3.80;;;;;;;;;;5003905;28;20399;-57
2023/09/28 07:44:52;;;;;;;15.60;4.15;;;;;;;;;;5005473;28;20419;-57
2023/09/28 07:47:19;;;;;;;14.53;3.57;;;;;;;;;;5004639;28;20448;-57
2023/09/28 07:49:44;;;;;;;18.10;3.97;;;;;;;;;;5017372;28;20426;-57
2023/09/28 07:52:09;;;;;;;16.90;3.53;;;;;;;;;;5022760;28;20758;-57
2023/09/28 07:54:36;;;;;;;17.70;4.17;;;;;;;;;;5020932;28;20399;-57
2023/09/28 07:57:01;;;;;;;15.47;3.90;;;;;;;;;;5023725;28;20399;-58
2023/09/28 07:59:26;;;;;;;20.42;4.18;;;;;;;;;;5024763;28;20903;-57
2023/09/28 08:01:51;;;;;;;18.10;4.40;;;;;;;;;;5020182;28;20471;-57
2023/09/28 08:04:17;;;;;;;15.15;4.13;;;;;;;;;;5023352;28;20498;-57
2023/09/28 08:06:42;;;;;;;19.40;3.97;;;;;;;;;;5024983;28;20406;-57
2023/09/28 08:09:13;;;;;;;23.93;4.53;;;;;;;;;;5021021;28;20846;-57
2023/09/28 08:11:38;;;;;;;20.98;4.30;;;;;;;;;;5020515;28;20789;-57
2023/09/28 08:14:05;;;;;;;19.20;4.33;;;;;;;;;;5022800;28;20973;-57
2023/09/28 08:16:30;;;;;;;17.97;3.90;;;;;;;;;;5016666;28;20460;-57
2023/09/28 08:18:55;;;;;;;17.73;3.63;;;;;;;;;;5018508;28;21233;-57
2023/09/28 08:21:24;;;;;;;19.87;3.87;;;;;;;;;;5024556;28;20438;-57
2023/09/28 08:23:49;;;;;;;14.93;3.72;;;;;;;;;;5023490;28;20403;-57
2023/09/28 08:26:15;;;;;;;26.00;4.50;;;;;;;;;;5019616;28;20910;-58
2023/09/28 08:28:40;;;;;;;17.90;4.20;;;;;;;;;;5022405;28;20399;-57
2023/09/28 08:31:06;;;;;;;17.80;3.80;;;;;;;;;;5024738;28;20418;-58
2023/09/28 08:33:31;;;;;;;18.67;3.80;;;;;;;;;;5016268;28;20488;-57
2023/09/28 08:35:57;;;;;;;22.33;4.60;;;;;;;;;;5017756;28;21066;-58
2023/09/28 08:38:22;;;;;;;22.43;3.80;;;;;;;;;;5023435;28;20422;-58
2023/09/28 08:40:48;;;;;;;19.03;3.80;;;;;;;;;;5023267;28;20407;-58
2023/09/28 08:43:14;;;;;;;18.58;4.00;;;;;;;;;;5016689;28;20445;-58
2023/09/28 08:45:39;;;;;;;17.50;4.00;;;;;;;;;;5014394;28;20401;-57
2023/09/28 08:48:06;;;;;;;20.20;4.23;;;;;;;;;;5022911;28;20420;-57
2023/09/28 08:50:33;;;;;;;16.95;3.60;;;;;;;;;;5020444;28;20415;-57
2023/09/28 08:52:58;;;;;;;18.60;3.78;;;;;;;;;;5020906;28;20407;-57
2023/09/28 08:55:24;;;;;;;18.70;3.85;;;;;;;;;;5021824;28;20875;-58
2023/09/28 08:57:49;;;;;;;18.45;3.70;;;;;;;;;;5014882;28;20396;-57
2023/09/28 09:00:15;;;;;;;17.20;3.73;;;;;;;;;;5015486;28;20412;-57
2023/09/28 09:02:42;;;;;;;20.00;4.50;;;;;;;;;;5015585;28;20462;-57
2023/09/28 09:05:07;;;;;;;18.13;4.05;;;;;;;;;;5020674;28;20404;-58
2023/09/28 09:07:32;;;;;;;20.70;4.47;;;;;;;;;;5018797;28;20488;-57
2023/09/28 09:09:57;;;;;;;17.83;3.90;;;;;;;;;;5022520;28;20409;-58
2023/09/28 09:12:24;;;;;;;19.10;4.20;;;;;;;;;;5015030;28;20550;-58
2023/09/28 09:14:49;;;;;;;22.92;4.38;;;;;;;;;;5020563;28;20399;-58
2023/09/28 09:17:14;;;;;;;16.47;3.90;;;;;;;;;;5019543;28;20924;-58
2023/09/28 09:19:41;;;;;;;16.10;3.70;;;;;;;;;;5023293;28;20403;-58
2023/09/28 09:22:08;;;;;;;21.17;4.60;;;;;;;;;;5022320;28;20793;-58
2023/09/28 09:24:33;;;;;;;16.45;4.20;;;;;;;;;;5016046;28;20947;-57
2023/09/28 09:26:58;;;;;;;19.45;3.83;;;;;;;;;;5032048;28;20393;-58
2023/09/28 09:29:23;;;;;;;18.05;3.63;;;;;;;;;;5031875;28;20479;-57
2023/09/28 09:31:49;;;;;;;19.93;3.83;;;;;;;;;;5023292;28;20407;-58
2023/09/28 09:34:17;;;;;;;18.93;3.90;;;;;;;;;;5017541;28;20442;-58
2023/09/28 09:36:43;;;;;;;18.88;4.20;;;;;;;;;;5022297;28;20403;-58
2023/09/28 09:39:08;;;;;;;20.27;4.30;;;;;;;;;;5013172;28;21046;-58
2023/09/28 09:41:44;;;;;;;20.02;4.28;;;;;;;;;;5018756;28;20909;-57
2023/09/28 09:44:10;;;;;;;18.05;3.78;;;;;;;;;;5018809;28;20509;-57
2023/09/28 09:46:36;;;;;;;21.70;4.10;;;;;;;;;;5015052;28;20480;-58
2023/09/28 09:49:02;;;;;;;20.42;4.07;;;;;;;;;;5014198;28;20420;-58
2023/09/28 09:51:27;;;;;;;16.53;3.80;;;;;;;;;;5015866;28;20400;-58
2023/09/28 09:53:52;;;;;;;16.87;3.53;;;;;;;;;;5023187;28;20406;-58
2023/09/28 09:56:18;;;;;;;17.33;4.40;;;;;;;;;;5012107;28;20510;-58
2023/09/28 09:58:47;;;;;;;20.33;4.23;;;;;;;;;;5016776;28;20915;-57
2023/09/28 10:01:13;;;;;;;18.33;4.45;;;;;;;;;;5015509;28;20419;-58
2023/09/28 10:03:39;;;;;;;15.65;3.67;;;;;;;;;;5022246;28;20446;-57
2023/09/28 10:06:04;;;;;;;16.90;3.83;;;;;;;;;;5013676;28;20423;-58
2023/09/28 10:08:30;;;;;;;19.47;3.90;;;;;;;;;;5016896;28;20399;-57
2023/09/28 10:10:56;;;;;;;17.33;3.80;;;;;;;;;;5020361;28;20931;-58
2023/09/28 10:13:21;;;;;;;17.02;3.42;;;;;;;;;;5021193;28;20406;-57
2023/09/28 10:15:47;;;;;;;16.33;3.53;;;;;;;;;;5016464;28;20422;-58
2023/09/28 10:18:13;;;;;;;17.30;3.85;;;;;;;;;;5020775;28;21005;-58
2023/09/28 10:20:39;;;;;;;17.47;3.50;;;;;;;;;;5021594;28;20409;-58
2023/09/28 10:23:12;;;;;;;18.23;3.53;;;;;;;;;;5019579;28;20408;-58
2023/09/28 10:25:51;;;;;;;17.25;3.50;;;;;;;;;;5016748;28;20407;-58
2023/09/28 10:28:16;;;;;;;17.90;4.03;;;;;;;;;;5022080;28;21059;-58
2023/09/28 10:30:42;;;;;;;14.00;3.47;;;;;;;;;;5015087;28;20491;-58
2023/09/28 10:33:13;;;;;;;17.27;3.87;;;;;;;;;;5016523;28;20911;-58
2023/09/28 10:35:39;;;;;;;18.27;3.80;;;;;;;;;;5019379;28;20410;-58
2023/09/28 10:38:15;;;;;;;22.15;4.30;;;;;;;;;;5017616;28;20405;-57
2023/09/28 10:40:41;;;;;;;17.17;3.78;;;;;;;;;;5017168;28;20405;-57
2023/09/28 10:43:10;;;;;;;17.85;3.72;;;;;;;;;;5020153;28;20415;-57
2023/09/28 10:45:37;;;;;;;17.70;3.70;;;;;;;;;;5025584;28;20455;-57
2023/09/28 10:48:03;;;;;;;17.05;3.90;;;;;;;;;;5017805;28;20772;-58
2023/09/28 10:50:28;;;;;;;18.58;3.72;;;;;;;;;;5022624;28;20407;-57
2023/09/28 10:52:53;;;;;;;18.73;3.70;;;;;;;;;;5023253;28;20419;-57
2023/09/28 10:55:19;;;;;;;15.83;3.30;;;;;;;;;;5017214;28;20499;-58
2023/09/28 10:57:44;;;;;;;17.87;3.80;;;;;;;;;;5024572;28;20898;-57
2023/09/28 11:00:12;;;;;;;15.20;3.37;;;;;;;;;;5019224;28;20403;-57
2023/09/28 11:02:37;;;;;;;14.07;3.60;;;;;;;;;;5017928;28;20410;-57
2023/09/28 11:05:03;;;;;;;16.73;3.87;;;;;;;;;;5025594;28;20765;-57
2023/09/28 11:07:28;;;;;;;16.73;3.83;;;;;;;;;;5018092;28;20882;-57
2023/09/28 11:09:53;;;;;;;15.95;3.70;;;;;;;;;;5017660;28;20451;-57
2023/09/28 11:12:19;;;;;;;16.70;3.77;;;;;;;;;;5023796;28;20419;-57
2023/09/28 11:14:44;;;;;;;18.13;4.03;;;;;;;;;;5018300;28;20911;-57
2023/09/28 11:17:09;;;;;;;17.27;3.90;;;;;;;;;;5017928;28;20449;-58
2023/09/28 11:19:35;;;;;;;17.03;3.80;;;;;;;;;;5025914;28;20398;-58
2023/09/28 11:22:00;;;;;;;16.33;3.97;;;;;;;;;;5024564;28;20418;-58
2023/09/28 11:24:26;;;;;;;13.73;3.40;;;;;;;;;;5018861;28;20791;-58
2023/09/28 11:26:51;;;;;;;15.23;3.60;;;;;;;;;;5017795;28;20399;-58
2023/09/28 11:29:16;;;;;;;13.40;3.23;;;;;;;;;;5019041;28;20428;-58
2023/09/28 11:31:48;;;;;;;16.67;3.60;;;;;;;;;;5019612;28;20410;-57
2023/09/28 11:34:14;;;;;;;15.27;3.50;;;;;;;;;;5017105;28;20496;-57
2023/09/28 11:36:39;;;;;;;16.17;3.50;;;;;;;;;;5025115;28;20796;-58
2023/09/28 11:39:05;;;;;;;16.60;3.80;;;;;;;;;;5016319;28;20415;-58
2023/09/28 11:41:31;;;;;;;15.35;3.17;;;;;;;;;;5018576;28;20399;-58
2023/09/28 11:43:56;;;;;;;18.08;3.97;;;;;;;;;;5024796;28;20461;-58
2023/09/28 11:46:22;;;;;;;17.70;3.75;;;;;;;;;;5024496;28;20398;-58
2023/09/28 11:48:49;;;;;;;14.33;3.17;;;;;;;;;;5018026;28;20502;-58
2023/09/28 11:51:15;;;;;;;15.70;4.10;;;;;;;;;;5023278;28;20426;-58
2023/09/28 11:53:41;;;;;;;16.95;3.85;;;;;;;;;;5016723;28;20508;-57
2023/09/28 11:56:07;;;;;;;15.68;3.58;;;;;;;;;;5020330;28;20961;-57
2023/09/28 11:58:34;;;;;;;16.58;3.65;;;;;;;;;;5020955;28;20479;-58
2023/09/28 12:00:59;;;;;;;12.83;3.40;;;;;;;;;;5017015;28;20465;-57
2023/09/28 12:03:24;;;;;;;17.90;3.43;;;;;;;;;;5014757;28;20401;-57
2023/09/28 12:05:50;;;;;;;17.88;3.50;;;;;;;;;;5018880;28;20494;-57
2023/09/28 12:08:15;;;;;;;19.27;3.83;;;;;;;;;;5015973;28;20435;-57
2023/09/28 12:10:40;;;;;;;17.13;3.70;;;;;;;;;;5023578;28;20904;-58
2023/09/28 12:13:06;;;;;;;15.67;3.47;;;;;;;;;;5018954;28;20407;-58
2023/09/28 12:15:33;;;;;;;16.70;3.40;;;;;;;;;;5022552;28;21597;-58
2023/09/28 12:17:58;;;;;;;19.73;3.70;;;;;;;;;;5023494;28;20904;-57
2023/09/28 12:20:24;;;;;;;15.90;3.83;;;;;;;;;;5017310;28;20396;-57
2023/09/28 12:22:51;;;;;;;16.07;3.20;;;;;;;;;;5017526;28;20436;-58
2023/09/28 12:25:16;;;;;;;19.23;3.80;;;;;;;;;;5014890;28;20407;-58
2023/09/28 12:27:44;;;;;;;17.50;3.70;;;;;;;;;;5024961;28;20403;-57
2023/09/28 12:30:12;;;;;;;20.10;4.15;;;;;;;;;;5018340;28;20417;-57
2023/09/28 12:32:37;;;;;;;15.93;3.72;;;;;;;;;;5023480;28;20915;-58
2023/09/28 12:35:05;;;;;;;15.23;3.57;;;;;;;;;;5015816;28;20438;-58
2023/09/28 12:37:32;;;;;;;15.52;3.55;;;;;;;;;;5020820;28;20474;-57
2023/09/28 12:39:58;;;;;;;17.38;3.67;;;;;;;;;;5020807;28;20898;-57
2023/09/28 12:42:24;;;;;;;17.58;3.60;;;;;;;;;;5023824;28;20401;-57
2023/09/28 12:44:50;;;;;;;15.57;3.67;;;;;;;;;;5016194;28;20488;-57
2023/09/28 12:47:16;;;;;;;16.60;3.33;;;;;;;;;;5017557;28;20415;-58
2023/09/28 12:49:41;;;;;;;12.97;2.93;;;;;;;;;;5023646;28;20415;-57
2023/09/28 12:52:07;;;;;;;16.90;4.00;;;;;;;;;;5014626;28;20467;-58
2023/09/28 12:54:32;;;;;;;13.48;3.80;;;;;;;;;;5019479;28;20416;-57
2023/09/28 12:56:58;;;;;;;14.18;3.33;;;;;;;;;;5022918;28;20457;-57
2023/09/28 12:59:24;;;;;;;15.60;3.43;;;;;;;;;;5014238;28;21205;-58
2023/09/28 13:01:49;;;;;;;16.83;3.67;;;;;;;;;;5021579;28;20431;-57
2023/09/28 13:04:14;;;;;;;13.40;2.80;;;;;;;;;;5019759;28;20410;-58
2023/09/28 13:06:40;;;;;;;16.65;3.45;;;;;;;;;;5014867;28;20914;-58
2023/09/28 13:09:06;;;;;;;16.20;3.43;;;;;;;;;;5022911;28;20913;-58
2023/09/28 13:11:32;;;;;;;18.38;3.83;;;;;;;;;;5018444;28;20426;-57
2023/09/28 13:13:57;;;;;;;15.90;3.28;;;;;;;;;;5014374;28;20404;-57
2023/09/28 13:16:24;;;;;;;15.53;3.60;;;;;;;;;;5022848;28;20996;-58
2023/09/28 13:18:50;;;;;;;15.73;3.38;;;;;;;;;;5017217;28;20396;-57
2023/09/28 13:21:15;;;;;;;13.27;3.70;;;;;;;;;;5015059;28;21001;-58
2023/09/28 13:23:40;;;;;;;14.73;3.23;;;;;;;;;;5023239;28;20450;-57
2023/09/28 13:26:08;;;;;;;15.17;3.27;;;;;;;;;;5022696;28;20474;-58
2023/09/28 13:28:33;;;;;;;13.77;3.33;;;;;;;;;;5020593;28;20405;-57
2023/09/28 13:30:59;;;;;;;15.83;3.03;;;;;;;;;;5025368;28;20918;-58
2023/09/28 13:33:25;;;;;;;15.90;3.90;;;;;;;;;;5002415;28;20401;-57
2023/09/28 13:35:50;;;;;;;12.97;3.10;;;;;;;;;;5001523;28;20408;-58
2023/09/28 13:38:16;;;;;;;15.33;2.90;;;;;;;;;;5003230;28;20833;-58
2023/09/28 13:40:41;;;;;;;14.95;3.10;;;;;;;;;;5005235;28;20643;-57
2023/09/28 13:43:07;;;;;;;13.93;3.10;;;;;;;;;;5013920;28;20412;-58
2023/09/28 13:45:33;;;;;;;11.03;2.80;;;;;;;;;;5009353;28;20407;-57
2023/09/28 13:48:01;;;;;;;14.23;3.53;;;;;;;;;;5007631;28;20416;-57
2023/09/28 13:50:28;;;;;;;13.15;2.90;;;;;;;;;;5008406;28;20507;-58
2023/09/28 13:52:54;;;;;;;14.20;3.03;;;;;;;;;;5011096;28;20404;-57
2023/09/28 13:55:20;;;;;;;13.67;3.20;;;;;;;;;;5005432;28;20407;-57
2023/09/28 13:57:46;;;;;;;16.52;3.67;;;;;;;;;;4999364;28;20440;-57
2023/09/28 14:00:21;;;;;;;14.43;3.43;;;;;;;;;;5001751;28;21332;-57
2023/09/28 14:02:48;;;;;;;13.65;3.22;;;;;;;;;;5007105;28;20422;-57
2023/09/28 14:05:13;;;;;;;11.30;3.08;;;;;;;;;;5007815;28;20404;-58
2023/09/28 14:07:38;;;;;;;13.70;2.97;;;;;;;;;;5008887;28;20856;-57
2023/09/28 14:10:05;;;;;;;13.63;3.23;;;;;;;;;;5008041;28;20403;-57
2023/09/28 14:12:30;;;;;;;15.10;3.17;;;;;;;;;;5011210;28;20997;-58
2023/09/28 14:14:56;;;;;;;12.40;2.80;;;;;;;;;;5011529;28;20397;-57
2023/09/28 14:17:21;;;;;;;12.10;3.10;;;;;;;;;;5011097;28;20491;-58
2023/09/28 14:19:46;;;;;;;10.67;2.63;;;;;;;;;;5003980;28;21000;-57
2023/09/28 14:22:11;;;;;;;14.23;3.40;;;;;;;;;;5000205;28;20487;-57
2023/09/28 14:24:37;;;;;;;12.40;3.27;;;;;;;;;;5004542;28;21024;-57
2023/09/28 14:27:02;;;;;;;14.52;3.17;;;;;;;;;;5010677;28;20745;-58
2023/09/28 14:29:28;;;;;;;13.15;2.70;;;;;;;;;;5012747;28;21070;-57